createdAt,value
2019-06-10T00:00:13.513Z,20.70
2019-06-10T00:02:42.145Z,20.60
2019-06-10T00:05:11.715Z,20.60
2019-06-10T00:07:41.243Z,20.60
2019-06-10T00:10:10.900Z,20.50
2019-06-10T00:12:41.948Z,20.50
2019-06-10T00:15:13.837Z,20.60
2019-06-10T00:17:54.816Z,20.60
2019-06-10T00:20:14.630Z,20.50
2019-06-10T00:22:45.359Z,20.50
2019-06-10T00:25:15.403Z,20.40
2019-06-10T00:27:44.952Z,20.40
2019-06-10T00:30:14.638Z,20.50
2019-06-10T00:32:47.451Z,20.50
2019-06-10T00:35:16.999Z,20.50
2019-06-10T00:37:46.543Z,20.40
2019-06-10T00:40:16.098Z,20.40
2019-06-10T00:42:45.602Z,20.40
2019-06-10T00:45:17.995Z,20.40
2019-06-10T00:47:47.970Z,20.40
2019-06-10T00:50:17.508Z,20.40
2019-06-10T00:52:47.092Z,20.30
2019-06-10T00:55:21.049Z,20.30
2019-06-10T00:57:50.960Z,20.30
2019-06-10T01:00:25.534Z,20.30
2019-06-10T01:02:53.817Z,20.30
2019-06-10T01:05:23.366Z,20.30
2019-06-10T01:07:54.046Z,20.20
2019-06-10T01:10:22.759Z,20.20
2019-06-10T01:12:52.293Z,20.20
2019-06-10T01:15:22.155Z,20.60
2019-06-10T01:17:51.712Z,20.20
2019-06-10T01:20:21.251Z,20.30
2019-06-10T01:22:51.600Z,20.20
2019-06-10T01:25:22.306Z,20.20
2019-06-10T01:27:51.861Z,20.10
2019-06-10T01:30:26.507Z,20.00
2019-06-10T01:32:52.763Z,20.00
2019-06-10T01:35:30.679Z,19.90
2019-06-10T01:38:01.068Z,19.70
2019-06-10T01:40:31.411Z,19.60
2019-06-10T01:43:01.195Z,19.60
2019-06-10T01:45:31.222Z,19.50
2019-06-10T01:48:01.445Z,19.50
2019-06-10T01:50:31.226Z,19.50
2019-06-10T01:53:00.775Z,19.50
2019-06-10T01:55:31.242Z,19.60
2019-06-10T01:58:00.929Z,19.60
2019-06-10T02:00:44.840Z,19.60
2019-06-10T02:03:16.581Z,20.00
2019-06-10T02:05:45.721Z,19.60
2019-06-10T02:08:16.599Z,19.70
2019-06-10T02:10:46.519Z,19.70
2019-06-10T02:13:33.215Z,19.70
2019-06-10T02:16:02.801Z,19.70
2019-06-10T02:18:32.428Z,19.70
2019-06-10T02:21:02.040Z,19.70
2019-06-10T02:23:31.828Z,19.70
2019-06-10T02:26:02.019Z,19.50
2019-06-10T02:28:32.137Z,19.30
2019-06-10T02:31:03.861Z,19.10
2019-06-10T02:33:36.411Z,18.60
2019-06-10T02:36:05.016Z,18.10
2019-06-10T02:38:39.412Z,17.90
2019-06-10T02:41:06.228Z,17.70
2019-06-10T02:43:37.825Z,17.60
2019-06-10T02:46:07.741Z,17.50
2019-06-10T02:48:37.266Z,17.50
2019-06-10T02:51:07.264Z,17.70
2019-06-10T02:53:37.427Z,17.80
2019-06-10T02:56:07.876Z,17.90
2019-06-10T02:58:39.494Z,18.00
2019-06-10T03:01:09.191Z,18.10
2019-06-10T03:03:44.558Z,18.20
2019-06-10T03:06:34.858Z,18.30
2019-06-10T03:09:03.455Z,18.30
2019-06-10T03:11:36.907Z,18.50
2019-06-10T03:14:04.471Z,18.50
2019-06-10T03:16:43.415Z,18.50
2019-06-10T03:19:13.299Z,18.50
2019-06-10T03:21:44.369Z,18.50
2019-06-10T03:24:15.206Z,18.60
2019-06-10T03:26:44.719Z,18.60
2019-06-10T03:29:14.243Z,18.60
2019-06-10T03:31:48.208Z,18.70
2019-06-10T03:34:17.637Z,18.70
2019-06-10T03:36:46.471Z,18.50
2019-06-10T03:39:16.252Z,18.30
2019-06-10T03:41:45.790Z,18.10
2019-06-10T03:44:16.825Z,18.00
2019-06-10T03:46:46.540Z,18.00
2019-06-10T03:49:17.140Z,18.10
2019-06-10T03:51:46.827Z,18.10
2019-06-10T03:54:17.407Z,18.20
2019-06-10T03:56:46.923Z,18.20
2019-06-10T03:59:17.182Z,18.40
2019-06-10T04:01:47.947Z,18.40
2019-06-10T04:04:17.496Z,18.50
2019-06-10T04:06:47.085Z,18.50
2019-06-10T04:09:17.429Z,18.60
2019-06-10T04:11:47.075Z,18.70
2019-06-10T04:14:17.594Z,18.70
2019-06-10T04:16:47.204Z,18.80
2019-06-10T04:19:17.632Z,18.90
2019-06-10T04:21:47.167Z,19.00
2019-06-10T04:24:17.658Z,19.10
2019-06-10T04:26:46.567Z,19.10
2019-06-10T04:29:16.035Z,19.00
2019-06-10T04:31:45.546Z,19.00
2019-06-10T04:34:15.077Z,18.90
2019-06-10T04:36:44.609Z,19.00
2019-06-10T04:39:14.145Z,19.00
2019-06-10T04:41:44.038Z,19.00
2019-06-10T04:44:13.681Z,19.00
2019-06-10T04:46:43.253Z,19.10
2019-06-10T04:49:13.272Z,19.00
2019-06-10T04:51:43.427Z,19.00
2019-06-10T04:54:13.493Z,19.10
2019-06-10T04:56:43.271Z,19.20
2019-06-10T04:59:12.814Z,19.20
2019-06-10T05:01:42.727Z,19.20
2019-06-10T05:04:12.760Z,19.10
2019-06-10T05:06:42.492Z,19.20
2019-06-10T05:09:12.555Z,19.10
2019-06-10T05:11:43.210Z,19.10
2019-06-10T05:14:13.333Z,19.10
2019-06-10T05:16:43.309Z,19.20
2019-06-10T05:19:13.113Z,19.30
2019-06-10T05:21:42.714Z,19.30
2019-06-10T05:24:12.677Z,19.20
2019-06-10T05:26:42.771Z,19.20
2019-06-10T05:29:12.400Z,19.20
2019-06-10T05:31:43.544Z,19.10
2019-06-10T05:34:13.326Z,19.00
2019-06-10T05:36:43.809Z,19.00
2019-06-10T05:39:13.465Z,19.00
2019-06-10T05:41:43.435Z,19.00
2019-06-10T05:44:13.599Z,18.70
2019-06-10T05:46:43.743Z,18.20
2019-06-10T05:49:15.830Z,17.80
2019-06-10T05:51:45.383Z,17.50
2019-06-10T05:54:15.111Z,17.40
2019-06-10T05:56:44.853Z,17.40
2019-06-10T05:59:14.606Z,17.40
2019-06-10T06:01:44.567Z,17.40
2019-06-10T06:04:14.366Z,17.40
2019-06-10T06:06:45.126Z,17.50
2019-06-10T06:09:14.113Z,17.70
2019-06-10T06:11:43.700Z,17.80
2019-06-10T06:14:13.437Z,17.90
2019-06-10T06:16:43.555Z,17.90
2019-06-10T06:19:13.266Z,17.90
2019-06-10T06:21:47.646Z,18.00
2019-06-10T06:24:14.022Z,18.20
2019-06-10T06:26:43.663Z,18.30
2019-06-10T06:29:13.287Z,18.50
2019-06-10T06:31:43.184Z,18.60
2019-06-10T06:34:13.878Z,18.80
2019-06-10T06:36:44.988Z,18.80
2019-06-10T06:39:13.730Z,18.80
2019-06-10T06:41:43.920Z,18.80
2019-06-10T06:44:13.756Z,18.80
2019-06-10T06:46:43.733Z,18.80
2019-06-10T06:49:13.418Z,18.80
2019-06-10T06:51:54.592Z,18.80
2019-06-10T06:54:14.702Z,18.80
2019-06-10T06:56:44.363Z,18.80
2019-06-10T06:59:16.119Z,18.70
2019-06-10T07:01:45.863Z,18.70
2019-06-10T07:04:15.609Z,18.70
2019-06-10T07:06:45.266Z,18.70
2019-06-10T07:09:22.127Z,18.80
2019-06-10T07:11:52.960Z,18.80
2019-06-10T07:14:23.805Z,18.80
2019-06-10T07:16:53.432Z,18.90
2019-06-10T07:19:23.016Z,19.00
2019-06-10T07:22:08.813Z,19.10
2019-06-10T07:24:25.412Z,19.10
2019-06-10T07:26:55.207Z,19.30
2019-06-10T07:29:25.224Z,19.30
2019-06-10T07:31:56.061Z,19.40
2019-06-10T07:34:26.879Z,19.40
2019-06-10T07:36:58.083Z,19.40
2019-06-10T07:39:27.690Z,19.50
2019-06-10T07:41:57.252Z,19.60
2019-06-10T07:44:26.808Z,19.80
2019-06-10T07:46:57.045Z,19.90
2019-06-10T07:49:27.827Z,20.00
2019-06-10T07:52:12.021Z,20.10
2019-06-10T07:54:29.816Z,20.20
2019-06-10T07:57:02.269Z,20.30
2019-06-10T07:59:33.842Z,20.30
2019-06-10T08:02:12.421Z,20.40
2019-06-10T08:04:45.829Z,20.50
2019-06-10T08:07:15.408Z,20.60
2019-06-10T08:09:45.916Z,20.70
2019-06-10T08:12:17.342Z,20.60
2019-06-10T08:14:48.341Z,20.70
2019-06-10T08:17:18.756Z,20.80
2019-06-10T08:19:54.120Z,20.90
2019-06-10T08:22:35.152Z,21.00
2019-06-10T08:24:55.946Z,21.10
2019-06-10T08:27:26.741Z,21.10
2019-06-10T08:30:14.303Z,21.20
2019-06-10T08:32:29.040Z,21.20
2019-06-10T08:34:59.195Z,21.20
2019-06-10T08:37:29.354Z,21.30
2019-06-10T08:40:00.081Z,21.30
2019-06-10T08:42:32.378Z,21.40
2019-06-10T08:45:04.871Z,21.40
2019-06-10T08:47:45.616Z,21.40
2019-06-10T08:50:16.128Z,21.40
2019-06-10T08:53:03.336Z,21.50
2019-06-10T08:55:19.423Z,21.60
2019-06-10T08:57:54.022Z,21.60
2019-06-10T09:00:25.621Z,21.70
2019-06-10T09:03:26.971Z,21.70
2019-06-10T09:06:02.713Z,21.70
2019-06-10T09:08:34.085Z,21.80
2019-06-10T09:11:05.213Z,21.80
2019-06-10T09:13:36.020Z,21.70
2019-06-10T09:16:15.600Z,21.70
2019-06-10T09:18:41.822Z,21.70
2019-06-10T09:21:49.777Z,21.70
2019-06-10T09:24:17.064Z,21.60
2019-06-10T09:26:49.957Z,21.60
2019-06-10T09:29:39.626Z,21.60
2019-06-10T09:32:12.357Z,21.60
2019-06-10T09:34:47.157Z,21.70
2019-06-10T09:37:14.532Z,21.80
2019-06-10T09:39:58.020Z,21.70
2019-06-10T09:42:26.648Z,21.80
2019-06-10T09:45:16.209Z,21.90
2019-06-10T09:47:50.902Z,21.90
2019-06-10T09:50:23.379Z,22.00
2019-06-10T09:52:57.101Z,22.10
2019-06-10T09:55:32.920Z,22.10
2019-06-10T09:58:05.171Z,22.20
2019-06-10T10:00:48.842Z,22.30
2019-06-10T10:03:17.079Z,22.40
2019-06-10T10:06:01.648Z,22.50
2019-06-10T10:08:23.911Z,22.60
2019-06-10T10:10:58.745Z,22.60
2019-06-10T10:13:28.588Z,22.70
2019-06-10T10:16:13.117Z,22.80
2019-06-10T10:18:48.961Z,22.90
2019-06-10T10:21:22.131Z,23.00
2019-06-10T10:24:07.122Z,23.10
2019-06-10T10:29:48.868Z,23.40
2019-06-10T10:32:18.694Z,23.50
2019-06-10T10:34:49.958Z,23.60
2019-06-10T10:37:22.929Z,23.60
2019-06-10T10:45:47.332Z,23.60
2019-06-10T10:48:33.297Z,23.70
2019-06-10T10:51:04.655Z,23.70
2019-06-10T10:53:35.910Z,23.80
2019-06-10T10:56:06.672Z,23.90
2019-06-10T10:58:37.324Z,24.00
2019-06-10T11:01:08.275Z,24.00
2019-06-10T11:03:44.039Z,24.10
2019-06-10T11:06:13.030Z,24.10
2019-06-10T11:08:45.302Z,24.20
2019-06-10T11:11:15.299Z,24.40
2019-06-10T11:13:45.615Z,24.50
2019-06-10T11:16:15.682Z,24.60
2019-06-10T11:18:47.614Z,24.60
2019-06-10T11:21:17.507Z,24.60
2019-06-10T11:23:48.101Z,24.70
2019-06-10T11:26:18.334Z,24.80
2019-06-10T11:28:52.826Z,24.80
2019-06-10T11:31:22.672Z,24.90
2019-06-10T11:33:57.877Z,25.00
2019-06-10T11:36:27.396Z,25.10
2019-06-10T11:38:59.077Z,25.20
2019-06-10T11:41:32.462Z,25.30
2019-06-10T11:44:05.397Z,25.30
2019-06-10T11:46:59.674Z,25.30
2019-06-10T11:49:30.050Z,25.30
2019-06-10T11:51:59.665Z,25.30
2019-06-10T11:54:29.345Z,25.30
2019-06-10T11:57:22.825Z,25.20
2019-06-10T11:59:53.322Z,25.20
2019-06-10T12:02:27.840Z,25.20
2019-06-10T12:05:00.564Z,25.20
2019-06-10T12:07:33.206Z,25.30
2019-06-10T12:12:45.712Z,25.50
2019-06-10T12:15:16.730Z,25.70
2019-06-10T12:21:13.758Z,25.90
2019-06-10T12:28:15.665Z,26.20
2019-06-10T12:31:01.480Z,26.50
2019-06-10T12:36:40.223Z,26.60
2019-06-10T12:39:37.936Z,26.80
2019-06-10T12:45:07.402Z,26.90
2019-06-10T12:47:48.065Z,26.90
2019-06-10T12:50:36.482Z,27.10
2019-06-10T12:55:59.237Z,27.10
2019-06-10T12:58:33.749Z,27.20
2019-06-10T13:01:49.591Z,27.20
2019-06-10T13:04:21.291Z,27.20
2019-06-10T13:07:19.520Z,27.20
2019-06-10T13:09:53.987Z,27.20
2019-06-10T13:12:25.369Z,27.30
2019-06-10T13:15:04.800Z,27.40
2019-06-10T13:17:39.203Z,27.60
2019-06-10T13:20:13.431Z,27.70
2019-06-10T13:22:43.225Z,27.80
2019-06-10T13:25:16.938Z,27.90
2019-06-10T13:27:51.852Z,28.00
2019-06-10T13:30:54.637Z,28.10
2019-06-10T13:33:26.494Z,28.20
2019-06-10T13:35:57.143Z,28.30
2019-06-10T13:38:29.441Z,28.50
2019-06-10T13:45:08.568Z,28.60
2019-06-10T13:48:14.810Z,28.70
2019-06-10T13:56:49.450Z,29.30
2019-06-10T13:59:18.272Z,29.40
2019-06-10T14:01:47.711Z,29.50
2019-06-10T14:04:21.840Z,29.60
2019-06-10T14:06:50.577Z,29.60
2019-06-10T14:09:22.799Z,29.60
2019-06-10T14:11:51.344Z,29.60
2019-06-10T14:14:22.952Z,29.60
2019-06-10T14:17:09.666Z,29.70
2019-06-10T14:19:39.251Z,29.60
2019-06-10T14:22:09.973Z,29.60
2019-06-10T14:24:42.095Z,29.60
2019-06-10T14:27:17.410Z,29.60
2019-06-10T14:29:43.315Z,29.60
2019-06-10T14:32:15.765Z,29.60
2019-06-10T14:34:47.154Z,29.70
2019-06-10T14:37:31.862Z,29.70
2019-06-10T14:39:48.061Z,29.70
2019-06-10T14:42:18.574Z,29.70
2019-06-10T14:44:52.539Z,29.70
2019-06-10T14:47:22.959Z,29.60
2019-06-10T14:49:53.068Z,29.60
2019-06-10T14:52:23.572Z,29.60
2019-06-10T14:54:53.170Z,29.50
2019-06-10T14:57:23.379Z,29.30
2019-06-10T14:59:53.864Z,29.10
2019-06-10T15:02:23.902Z,28.90
2019-06-10T15:04:54.021Z,28.70
2019-06-10T15:07:24.202Z,28.50
2019-06-10T15:09:55.167Z,28.30
2019-06-10T15:12:25.676Z,28.10
2019-06-10T15:14:55.541Z,27.90
2019-06-10T15:17:27.773Z,27.80
2019-06-10T15:19:58.491Z,27.60
2019-06-10T15:22:52.765Z,27.50
2019-06-10T15:25:28.864Z,27.40
2019-06-10T15:27:59.035Z,27.30
2019-06-10T15:30:31.442Z,27.10
2019-06-10T15:33:00.137Z,27.10
2019-06-10T15:35:29.690Z,26.90
2019-06-10T15:37:59.391Z,26.80
2019-06-10T15:40:28.960Z,26.60
2019-06-10T15:43:28.739Z,26.10
2019-06-10T15:46:04.556Z,25.00
2019-06-10T15:48:43.379Z,23.80
2019-06-10T15:51:18.542Z,22.20
2019-06-10T15:53:45.694Z,20.50
2019-06-10T15:56:27.027Z,19.50
2019-06-10T15:58:47.611Z,18.60
2019-06-10T16:01:21.725Z,18.40
2019-06-10T16:03:49.749Z,18.10
2019-06-10T16:06:20.243Z,18.10
2019-06-10T16:08:52.358Z,18.30
2019-06-10T16:11:26.683Z,18.40
2019-06-10T16:13:53.703Z,18.60
2019-06-10T16:16:23.388Z,18.80
2019-06-10T16:18:54.023Z,19.10
2019-06-10T16:21:31.893Z,19.30
2019-06-10T16:24:02.780Z,19.50
2019-06-10T16:26:35.383Z,19.70
2019-06-10T16:29:03.759Z,19.90
2019-06-10T16:31:36.144Z,20.00
2019-06-10T16:34:05.786Z,20.20
2019-06-10T16:36:45.391Z,20.30
2019-06-10T16:39:14.954Z,20.50
2019-06-10T16:41:44.794Z,20.60
2019-06-10T16:44:15.839Z,20.60
2019-06-10T16:46:45.603Z,20.70
2019-06-10T16:49:15.241Z,20.80
2019-06-10T16:51:44.836Z,20.90
2019-06-10T16:54:14.407Z,21.00
2019-06-10T16:56:44.029Z,21.00
2019-06-10T16:59:14.632Z,21.10
2019-06-10T17:01:54.178Z,21.10
2019-06-10T17:04:39.606Z,21.20
2019-06-10T17:07:09.527Z,21.20
2019-06-10T17:09:42.029Z,21.30
2019-06-10T17:12:12.622Z,21.20
2019-06-10T17:14:52.638Z,21.20
2019-06-10T17:17:26.961Z,21.00
2019-06-10T17:20:05.174Z,20.90
2019-06-10T17:22:37.245Z,20.70
2019-06-10T17:25:06.971Z,20.60
2019-06-10T17:27:37.752Z,20.50
2019-06-10T17:30:07.656Z,20.40
2019-06-10T17:32:37.323Z,20.30
2019-06-10T17:35:06.894Z,20.00
2019-06-10T17:37:36.618Z,20.00
2019-06-10T17:40:06.349Z,20.10
2019-06-10T17:42:38.363Z,20.10
2019-06-10T17:45:07.441Z,20.20
2019-06-10T17:47:37.025Z,20.30
2019-06-10T17:50:06.811Z,20.40
2019-06-10T17:52:38.914Z,20.50
2019-06-10T17:55:09.403Z,20.70
2019-06-10T17:57:39.108Z,20.70
2019-06-10T18:00:12.225Z,20.90
2019-06-10T18:02:44.361Z,21.00
2019-06-10T18:05:14.092Z,21.00
2019-06-10T18:07:44.804Z,21.10
2019-06-10T18:10:15.693Z,21.10
2019-06-10T18:12:45.210Z,21.20
2019-06-10T18:15:14.838Z,21.20
2019-06-10T18:17:46.462Z,21.20
2019-06-10T18:20:57.570Z,21.20
2019-06-10T18:23:28.483Z,21.10
2019-06-10T18:26:00.283Z,21.20
2019-06-10T18:28:31.340Z,21.00
2019-06-10T18:31:01.479Z,21.00
2019-06-10T18:33:34.207Z,21.00
2019-06-10T18:36:02.293Z,20.90
2019-06-10T18:38:36.805Z,20.80
2019-06-10T18:41:05.732Z,20.70
2019-06-10T18:43:36.838Z,20.60
2019-06-10T18:46:06.601Z,20.50
2019-06-10T18:48:38.054Z,20.30
2019-06-10T18:51:07.658Z,20.30
2019-06-10T18:53:58.505Z,20.20
2019-06-10T18:56:27.664Z,20.20
2019-06-10T18:59:12.463Z,20.20
2019-06-10T19:01:30.382Z,20.20
2019-06-10T19:04:02.621Z,20.20
2019-06-10T19:06:33.835Z,20.20
2019-06-10T19:09:09.537Z,20.10
2019-06-10T19:11:40.168Z,20.10
2019-06-10T19:14:12.806Z,20.10
2019-06-10T19:16:43.176Z,20.10
2019-06-10T19:19:12.941Z,19.90
2019-06-10T19:21:44.036Z,19.80
2019-06-10T19:24:13.982Z,19.80
2019-06-10T19:26:45.128Z,19.80
2019-06-10T19:29:30.147Z,19.80
2019-06-10T19:31:47.658Z,19.80
2019-06-10T19:34:17.276Z,19.80
2019-06-10T19:36:47.023Z,19.80
2019-06-10T19:39:16.728Z,19.80
2019-06-10T19:41:47.511Z,19.80
2019-06-10T19:44:17.681Z,19.80
2019-06-10T19:46:47.259Z,19.80
2019-06-10T19:49:19.312Z,19.80
2019-06-10T19:51:49.063Z,19.80
2019-06-10T19:54:18.705Z,19.80
2019-06-10T19:56:48.264Z,19.90
2019-06-10T19:59:19.949Z,19.90
2019-06-10T20:01:49.753Z,19.80
2019-06-10T20:04:19.448Z,19.80
2019-06-10T20:06:50.807Z,19.70
2019-06-10T20:09:23.040Z,19.60
2019-06-10T20:11:52.907Z,19.50
2019-06-10T20:14:22.644Z,19.50
2019-06-10T20:16:52.713Z,19.50
2019-06-10T20:19:23.076Z,19.50
2019-06-10T20:21:52.665Z,19.50
2019-06-10T20:24:22.553Z,19.40
2019-06-10T20:26:52.971Z,19.30
2019-06-10T20:29:22.988Z,19.20
2019-06-10T20:31:59.528Z,19.20
2019-06-10T20:34:29.243Z,19.20
2019-06-10T20:36:58.833Z,19.20
2019-06-10T20:39:32.968Z,19.20
2019-06-10T20:42:05.803Z,19.20
2019-06-10T20:44:40.282Z,19.20
2019-06-10T20:47:16.390Z,19.20
2019-06-10T20:49:53.611Z,19.20
2019-06-10T20:52:27.498Z,19.20
2019-06-10T20:55:04.355Z,19.10
2019-06-10T20:57:50.082Z,19.00
2019-06-10T21:00:22.212Z,18.90
2019-06-10T21:02:45.458Z,18.90
2019-06-10T21:05:14.211Z,18.80
2019-06-10T21:07:45.111Z,18.80
2019-06-10T21:10:32.766Z,18.80
2019-06-10T21:13:03.570Z,18.80
2019-06-10T21:15:33.466Z,18.90
2019-06-10T21:18:03.106Z,18.80
2019-06-10T21:27:58.880Z,18.80
2019-06-10T21:35:05.929Z,18.80
2019-06-10T21:38:38.745Z,18.70
2019-06-10T21:44:59.612Z,18.70
2019-06-10T21:47:32.417Z,18.60
2019-06-10T21:50:08.229Z,18.60
2019-06-10T21:52:37.971Z,18.60
2019-06-10T21:55:28.096Z,18.60
2019-06-10T21:57:57.630Z,18.60
2019-06-10T22:00:52.075Z,18.60
2019-06-10T22:03:08.571Z,18.60
2019-06-10T22:05:49.967Z,18.50
2019-06-10T22:08:19.624Z,18.60
2019-06-10T22:10:50.018Z,18.60
2019-06-10T22:13:19.817Z,18.60
2019-06-10T22:15:57.185Z,18.60
2019-06-10T22:18:27.776Z,18.60
2019-06-10T22:21:07.715Z,18.60
2019-06-10T22:23:37.254Z,18.60
2019-06-10T22:26:08.874Z,18.60
2019-06-10T22:28:38.416Z,18.60
2019-06-10T22:31:22.294Z,18.60
2019-06-10T22:33:45.411Z,18.50
2019-06-10T22:36:16.080Z,18.50
2019-06-10T22:38:46.154Z,18.40
2019-06-10T22:41:15.677Z,18.40
2019-06-10T22:43:45.351Z,18.30
2019-06-10T22:46:15.359Z,18.20
2019-06-10T22:48:45.034Z,18.20
2019-06-10T22:51:22.704Z,18.20
2019-06-10T22:53:58.045Z,18.20
2019-06-10T22:56:26.244Z,18.20
2019-06-10T22:58:57.349Z,18.20
2019-06-10T23:01:34.339Z,18.20
2019-06-10T23:04:00.372Z,18.20
2019-06-10T23:06:30.140Z,18.20
2019-06-10T23:08:59.697Z,18.20
2019-06-10T23:11:34.852Z,18.20
2019-06-10T23:14:04.449Z,18.30
2019-06-10T23:16:34.040Z,18.20
2019-06-10T23:19:03.575Z,18.20
2019-06-10T23:21:33.120Z,18.30
2019-06-10T23:24:03.293Z,18.20
2019-06-10T23:26:33.320Z,18.20
2019-06-10T23:29:03.800Z,18.10
2019-06-10T23:31:48.622Z,18.10
2019-06-10T23:34:05.773Z,18.00
2019-06-10T23:36:35.356Z,18.10
2019-06-10T23:39:05.587Z,18.10
2019-06-10T23:41:35.663Z,18.00
2019-06-10T23:44:06.479Z,17.90
2019-06-10T23:46:35.302Z,17.80
2019-06-10T23:49:08.401Z,17.70
2019-06-10T23:51:38.111Z,17.50
2019-06-10T23:54:07.977Z,17.50
2019-06-10T23:56:39.878Z,17.50
2019-06-10T23:59:11.925Z,17.50
